CDT,Max TemperatureF,Mean TemperatureF,Min TemperatureF,Max Dew PointF,MeanDew PointF,Min DewpointF,Max Humidity, Mean Humidity, Min Humidity, Max Sea Level PressureIn, Mean Sea Level PressureIn, Min Sea Level PressureIn, Max VisibilityMiles, Mean VisibilityMiles, Min VisibilityMiles, Max Wind SpeedMPH, Mean Wind SpeedMPH, Max Gust SpeedMPH,PrecipitationIn, CloudCover, Events, WindDirDegrees
2012-10-1,76,59,42,46,41,36,71,50,29,29.94,29.90,29.86,10,10,8,25,11,32,0.00,0,,330
2012-10-2,74,57,39,46,38,34,79,53,27,29.98,29.92,29.87,10,9,2,12,4,14,0.00,0,,345
2012-10-3,79,58,36,46,38,29,85,55,25,29.96,29.91,29.85,10,8,4,21,7,25,0.00,0,,166
2012-10-4,59,48,36,41,33,26,71,53,35,30.24,30.09,29.88,10,10,9,30,18,39,0.00,1,,286
2012-10-5,51,41,30,27,21,11,72,46,20,30.26,30.22,30.16,10,10,10,25,14,31,0.00,1,,292
2012-10-6,43,36,29,27,24,18,78,61,44,30.30,30.26,30.20,10,10,10,25,12,30,0.00,7,,320
2012-10-7,53,36,19,24,18,15,81,52,22,30.27,30.16,29.99,10,10,10,18,9,25,0.00,0,,240
2012-10-8,69,54,38,47,29,21,70,46,21,29.98,29.83,29.73,10,10,9,33,16,43,0.07,4,Rain,212
2012-10-9,50,42,33,48,38,25,93,72,50,30.07,29.89,29.77,10,9,5,25,13,32,0.28,6,Rain,275
2012-10-10,54,42,29,29,26,23,78,55,32,30.20,30.11,30.01,10,10,10,21,10,25,0.00,1,,252
2012-10-11,52,40,27,34,28,19,63,52,40,30.41,30.14,29.94,10,10,9,24,14,36,T,3,Rain,314
2012-10-12,54,38,21,34,20,13,81,50,19,30.46,30.33,30.09,10,10,10,20,10,24,0.01,2,Rain-Thunderstorm,121
2012-10-13,69,57,44,63,52,37,96,86,76,30.07,29.81,29.68,10,5,2,25,12,32,0.08,8,Rain-Thunderstorm,180
2012-10-14,59,50,41,55,46,35,100,78,55,29.93,29.73,29.63,10,7,2,32,17,38,0.26,6,Rain,342
2012-10-15,65,49,32,42,36,30,89,63,36,30.01,29.93,29.82,10,10,9,13,7,17,0.00,1,,234
2012-10-16,69,57,45,50,44,39,86,69,51,29.80,29.55,29.40,10,10,7,16,8,20,0.00,0,,173
2012-10-17,62,54,45,51,42,35,86,65,43,29.42,29.36,29.27,10,10,10,30,17,36,0.01,5,Rain,246
2012-10-18,47,42,37,43,40,35,93,82,70,29.41,29.30,29.25,10,6,0,28,12,33,0.03,8,Fog-Rain,284
2012-10-19,49,42,35,45,42,36,96,91,86,29.78,29.60,29.40,10,6,0,21,10,25,0.04,7,Fog-Rain,320
2012-10-20,50,43,36,43,40,36,96,88,80,29.87,29.83,29.77,10,6,1,13,6,16,0.00,6,,204
2012-10-21,72,56,39,53,46,37,92,71,49,29.87,29.84,29.79,10,9,5,21,12,25,0.00,0,,147
2012-10-22,70,63,55,59,56,50,90,78,66,29.88,29.85,29.81,9,6,5,17,8,22,0.00,6,,73
2012-10-23,67,63,58,63,60,55,100,89,78,29.81,29.77,29.70,10,4,0,20,10,26,T,7,Fog-Rain,167
2012-10-24,71,61,51,66,58,50,100,94,87,29.83,29.76,29.69,7,3,0,22,9,25,0.51,8,Fog-Rain,360
2012-10-25,51,43,34,50,39,23,89,74,59,30.26,29.81,29.58,10,7,1,33,21,41,1.03,8,Rain-Thunderstorm,340
2012-10-26,40,35,29,26,24,22,78,64,50,30.45,30.39,30.24,10,10,10,22,11,28,0.00,5,,295
2012-10-27,42,33,24,26,21,17,85,62,38,30.43,30.38,30.33,10,10,10,8,3,10,0.00,2,,317
2012-10-28,47,35,23,25,21,19,85,60,34,30.40,30.35,30.30,10,10,9,15,4,20,0.00,2,,157
2012-10-29,47,35,22,29,24,18,88,69,49,30.36,30.31,30.24,10,10,8,20,7,23,0.00,4,,136
2012-10-30,49,36,23,28,25,18,85,64,42,30.24,30.14,30.05,10,10,10,17,9,20,0.00,2,,6
2012-10-31,52,36,20,26,20,15,81,53,24,30.07,30.03,29.98,10,10,10,16,8,23,0.00,0,,323